sensor_id;sensor_type;location;lat;lon;timestamp;pressure;altitude;pressure_sealevel;temperature;humidity
51313;BME280;37397;53.226;10.400;2023-02-12T00:01:34;103058.44;;;9.11;79.57
51313;BME280;37397;53.226;10.400;2023-02-12T00:04:01;103059.66;;;9.10;79.62
51313;BME280;37397;53.226;10.400;2023-02-12T00:06:27;103066.97;;;9.15;79.47
51313;BME280;37397;53.226;10.400;2023-02-12T00:08:55;103072.66;;;9.15;79.49
51313;BME280;37397;53.226;10.400;2023-02-12T00:11:24;103078.38;;;9.15;79.45
51313;BME280;37397;53.226;10.400;2023-02-12T00:13:52;103065.38;;;9.10;79.46
51313;BME280;37397;53.226;10.400;2023-02-12T00:16:21;103074.28;;;9.16;79.45
51313;BME280;37397;53.226;10.400;2023-02-12T00:18:51;103069.44;;;9.09;79.37
51313;BME280;37397;53.226;10.400;2023-02-12T00:21:18;103083.22;;;9.14;79.49
51313;BME280;37397;53.226;10.400;2023-02-12T00:23:45;103082.88;;;9.08;79.30
51313;BME280;37397;53.226;10.400;2023-02-12T00:26:16;103099.53;;;9.13;79.41
51313;BME280;37397;53.226;10.400;2023-02-12T00:28:47;103092.63;;;9.15;79.34
51313;BME280;37397;53.226;10.400;2023-02-12T00:31:17;103093.81;;;9.13;79.38
51313;BME280;37397;53.226;10.400;2023-02-12T00:33:44;103088.13;;;9.13;79.38
51313;BME280;37397;53.226;10.400;2023-02-12T00:36:14;103087.31;;;9.13;79.29
51313;BME280;37397;53.226;10.400;2023-02-12T00:38:42;103086.09;;;9.10;79.28
51313;BME280;37397;53.226;10.400;2023-02-12T00:41:09;103091.38;;;9.12;79.22
51313;BME280;37397;53.226;10.400;2023-02-12T00:43:36;103090.59;;;9.11;79.14
51313;BME280;37397;53.226;10.400;2023-02-12T00:46:03;103093.03;;;9.13;78.90
51313;BME280;37397;53.226;10.400;2023-02-12T00:48:30;103091.41;;;9.08;79.06
51313;BME280;37397;53.226;10.400;2023-02-12T00:50:56;103090.59;;;9.08;79.01
51313;BME280;37397;53.226;10.400;2023-02-12T00:53:23;103103.59;;;9.12;79.00
51313;BME280;37397;53.226;10.400;2023-02-12T00:55:49;103104.84;;;9.11;78.94
51313;BME280;37397;53.226;10.400;2023-02-12T00:58:16;103096.28;;;9.11;78.80
51313;BME280;37397;53.226;10.400;2023-02-12T01:00:44;103085.75;;;9.05;78.95
51313;BME280;37397;53.226;10.400;2023-02-12T01:03:12;103098.72;;;9.09;78.60
51313;BME280;37397;53.226;10.400;2023-02-12T01:05:39;103102.00;;;9.11;78.79
51313;BME280;37397;53.226;10.400;2023-02-12T01:08:05;103104.41;;;9.09;78.72
51313;BME280;37397;53.226;10.400;2023-02-12T01:10:32;103099.53;;;9.06;78.76
51313;BME280;37397;53.226;10.400;2023-02-12T01:12:59;103094.72;;;9.03;78.73
51313;BME280;37397;53.226;10.400;2023-02-12T01:15:25;103096.31;;;9.04;78.72
51313;BME280;37397;53.226;10.400;2023-02-12T01:17:52;103093.06;;;9.06;78.74
51313;BME280;37397;53.226;10.400;2023-02-12T01:20:21;103105.66;;;9.08;78.67
51313;BME280;37397;53.226;10.400;2023-02-12T01:22:49;103093.91;;;8.99;78.69
51313;BME280;37397;53.226;10.400;2023-02-12T01:25:15;103097.53;;;9.07;78.77
51313;BME280;37397;53.226;10.400;2023-02-12T01:27:46;103093.06;;;9.02;78.94
51313;BME280;37397;53.226;10.400;2023-02-12T01:30:13;103104.44;;;9.06;78.66
51313;BME280;37397;53.226;10.400;2023-02-12T01:32:40;103093.88;;;9.03;78.76
51313;BME280;37397;53.226;10.400;2023-02-12T01:35:07;103102.00;;;9.04;78.81
51313;BME280;37397;53.226;10.400;2023-02-12T01:37:36;103102.84;;;9.01;78.73
51313;BME280;37397;53.226;10.400;2023-02-12T01:40:03;103097.97;;;9.02;78.75
51313;BME280;37397;53.226;10.400;2023-02-12T01:42:29;103105.28;;;8.99;78.75
51313;BME280;37397;53.226;10.400;2023-02-12T01:45:26;103111.38;;;9.01;78.60
51313;BME280;37397;53.226;10.400;2023-02-12T01:47:58;103107.75;;;8.97;78.73
51313;BME280;37397;53.226;10.400;2023-02-12T01:50:25;103107.72;;;9.01;78.96
51313;BME280;37397;53.226;10.400;2023-02-12T01:52:54;103102.06;;;8.97;78.99
51313;BME280;37397;53.226;10.400;2023-02-12T01:55:23;103108.53;;;9.01;78.88
51313;BME280;37397;53.226;10.400;2023-02-12T01:57:50;103113.44;;;9.01;78.88
51313;BME280;37397;53.226;10.400;2023-02-12T02:00:23;103112.63;;;9.00;78.93
51313;BME280;37397;53.226;10.400;2023-02-12T02:02:53;103113.84;;;8.99;78.83
51313;BME280;37397;53.226;10.400;2023-02-12T02:05:29;103132.13;;;8.98;78.83
51313;BME280;37397;53.226;10.400;2023-02-12T02:07:56;103117.94;;;8.94;79.08
51313;BME280;37397;53.226;10.400;2023-02-12T02:10:24;103122.44;;;8.92;78.74
51313;BME280;37397;53.226;10.400;2023-02-12T02:12:52;103124.84;;;8.97;78.94
51313;BME280;37397;53.226;10.400;2023-02-12T02:15:41;103133.38;;;8.97;78.81
51313;BME280;37397;53.226;10.400;2023-02-12T02:18:23;103132.56;;;8.93;78.78
51313;BME280;37397;53.226;10.400;2023-02-12T02:21:19;103125.28;;;8.88;78.63
51313;BME280;37397;53.226;10.400;2023-02-12T02:24:20;103125.28;;;8.92;78.61
51313;BME280;37397;53.226;10.400;2023-02-12T02:27:29;103127.69;;;8.90;78.72
51313;BME280;37397;53.226;10.400;2023-02-12T02:32:45;103131.78;;;8.89;78.72
51313;BME280;37397;53.226;10.400;2023-02-12T02:37:52;103149.28;;;8.91;78.71
51313;BME280;37397;53.226;10.400;2023-02-12T02:40:32;103132.22;;;8.87;78.64
51313;BME280;37397;53.226;10.400;2023-02-12T02:43:06;103134.66;;;8.89;78.74
51313;BME280;37397;53.226;10.400;2023-02-12T02:45:41;103135.03;;;8.84;78.73
51313;BME280;37397;53.226;10.400;2023-02-12T02:48:16;103144.41;;;8.88;78.71
51313;BME280;37397;53.226;10.400;2023-02-12T02:50:47;103144.41;;;8.88;78.57
51313;BME280;37397;53.226;10.400;2023-02-12T02:53:27;103151.72;;;8.89;78.62
51313;BME280;37397;53.226;10.400;2023-02-12T02:55:57;103149.72;;;8.86;78.71
51313;BME280;37397;53.226;10.400;2023-02-12T02:58:35;103143.59;;;8.84;78.66
51313;BME280;37397;53.226;10.400;2023-02-12T03:01:21;103152.56;;;8.86;78.57
51313;BME280;37397;53.226;10.400;2023-02-12T03:04:01;103163.94;;;8.86;78.40
51313;BME280;37397;53.226;10.400;2023-02-12T03:06:40;103155.41;;;8.86;78.58
51313;BME280;37397;53.226;10.400;2023-02-12T03:09:27;103157.03;;;8.80;78.58
51313;BME280;37397;53.226;10.400;2023-02-12T03:12:00;103154.59;;;8.82;78.51
51313;BME280;37397;53.226;10.400;2023-02-12T03:14:31;103163.94;;;8.82;78.79
51313;BME280;37397;53.226;10.400;2023-02-12T03:17:12;103150.97;;;8.78;78.52
51313;BME280;37397;53.226;10.400;2023-02-12T03:19:46;103160.31;;;8.74;78.57
51313;BME280;37397;53.226;10.400;2023-02-12T03:22:17;103176.16;;;8.75;78.67
51313;BME280;37397;53.226;10.400;2023-02-12T03:27:41;103176.16;;;8.75;78.46
51313;BME280;37397;53.226;10.400;2023-02-12T03:30:10;103182.28;;;8.78;78.73
51313;BME280;37397;53.226;10.400;2023-02-12T03:32:45;103181.44;;;8.77;78.56
51313;BME280;37397;53.226;10.400;2023-02-12T03:35:25;103176.56;;;8.74;78.56
51313;BME280;37397;53.226;10.400;2023-02-12T03:40:30;103182.28;;;8.78;78.65
51313;BME280;37397;53.226;10.400;2023-02-12T03:43:15;103192.41;;;8.79;78.78
51313;BME280;37397;53.226;10.400;2023-02-12T03:45:54;103179.84;;;8.76;78.52
51313;BME280;37397;53.226;10.400;2023-02-12T03:49:06;103187.56;;;8.72;78.54
51313;BME280;37397;53.226;10.400;2023-02-12T03:51:41;103192.44;;;8.75;78.55
51313;BME280;37397;53.226;10.400;2023-02-12T03:54:11;103189.59;;;8.75;78.53
51313;BME280;37397;53.226;10.400;2023-02-12T03:56:46;103191.63;;;8.74;78.37
51313;BME280;37397;53.226;10.400;2023-02-12T03:59:19;103196.09;;;8.75;78.71
51313;BME280;37397;53.226;10.400;2023-02-12T04:01:47;103194.06;;;8.76;78.46
51313;BME280;37397;53.226;10.400;2023-02-12T04:04:15;103190.41;;;8.72;78.60
51313;BME280;37397;53.226;10.400;2023-02-12T04:06:44;103204.63;;;8.75;78.44
51313;BME280;37397;53.226;10.400;2023-02-12T04:09:12;103195.31;;;8.71;78.58
51313;BME280;37397;53.226;10.400;2023-02-12T04:15:15;103215.22;;;8.71;78.58
51313;BME280;37397;53.226;10.400;2023-02-12T04:17:38;103205.88;;;8.67;78.42
51313;BME280;37397;53.226;10.400;2023-02-12T04:20:21;103224.97;;;8.70;78.49
51313;BME280;37397;53.226;10.400;2023-02-12T04:22:53;103206.69;;;8.71;78.44
51313;BME280;37397;53.226;10.400;2023-02-12T04:25:42;103212.81;;;8.66;78.46
51313;BME280;37397;53.226;10.400;2023-02-12T04:28:27;103213.19;;;8.68;78.48
51313;BME280;37397;53.226;10.400;2023-02-12T04:31:07;103205.47;;;8.69;78.43
51313;BME280;37397;53.226;10.400;2023-02-12T04:33:43;103213.19;;;8.68;78.61
51313;BME280;37397;53.226;10.400;2023-02-12T04:36:15;103211.97;;;8.69;78.49
51313;BME280;37397;53.226;10.400;2023-02-12T04:38:50;103220.94;;;8.68;78.53
51313;BME280;37397;53.226;10.400;2023-02-12T04:41:18;103211.16;;;8.65;78.37
51313;BME280;37397;53.226;10.400;2023-02-12T04:43:45;103214.41;;;8.67;78.58
51313;BME280;37397;53.226;10.400;2023-02-12T04:46:11;103214.41;;;8.67;78.32
51313;BME280;37397;53.226;10.400;2023-02-12T04:48:52;103212.78;;;8.63;78.30
51313;BME280;37397;53.226;10.400;2023-02-12T04:51:19;103211.97;;;8.66;78.36
51313;BME280;37397;53.226;10.400;2023-02-12T04:53:46;103206.28;;;8.62;78.19
51313;BME280;37397;53.226;10.400;2023-02-12T04:56:14;103213.63;;;8.63;78.54
51313;BME280;37397;53.226;10.400;2023-02-12T04:58:41;103216.47;;;8.63;78.40
51313;BME280;37397;53.226;10.400;2023-02-12T05:01:08;103222.56;;;8.65;78.32
51313;BME280;37397;53.226;10.400;2023-02-12T05:03:35;103223.38;;;8.62;78.43
51313;BME280;37397;53.226;10.400;2023-02-12T05:06:07;103213.19;;;8.61;78.30
51313;BME280;37397;53.226;10.400;2023-02-12T05:08:34;103232.31;;;8.64;78.37
51313;BME280;37397;53.226;10.400;2023-02-12T05:11:08;103220.13;;;8.60;78.19
51313;BME280;37397;53.226;10.400;2023-02-12T05:13:35;103229.06;;;8.62;78.31
51313;BME280;37397;53.226;10.400;2023-02-12T05:16:06;103225.00;;;8.63;78.32
51313;BME280;37397;53.226;10.400;2023-02-12T05:18:33;103223.78;;;8.61;78.27
51313;BME280;37397;53.226;10.400;2023-02-12T05:21:02;103227.03;;;8.63;78.43
51313;BME280;37397;53.226;10.400;2023-02-12T05:23:31;103215.25;;;8.57;78.25
51313;BME280;37397;53.226;10.400;2023-02-12T05:25:59;103220.13;;;8.60;78.28
51313;BME280;37397;53.226;10.400;2023-02-12T05:28:27;103227.44;;;8.61;78.33
51313;BME280;37397;53.226;10.400;2023-02-12T05:30:53;103216.47;;;8.56;78.28
51313;BME280;37397;53.226;10.400;2023-02-12T05:33:20;103225.81;;;8.60;78.30
51313;BME280;37397;53.226;10.400;2023-02-12T05:35:46;103221.75;;;8.54;78.25
51313;BME280;37397;53.226;10.400;2023-02-12T05:38:13;103225.00;;;8.60;78.35
51313;BME280;37397;53.226;10.400;2023-02-12T05:40:39;103235.56;;;8.59;78.35
51313;BME280;37397;53.226;10.400;2023-02-12T05:43:08;103227.03;;;8.55;78.29
51313;BME280;37397;53.226;10.400;2023-02-12T05:45:34;103236.78;;;8.58;78.29
51313;BME280;37397;53.226;10.400;2023-02-12T05:48:01;103226.66;;;8.53;78.29
51313;BME280;37397;53.226;10.400;2023-02-12T05:50:28;103232.31;;;8.57;78.23
51313;BME280;37397;53.226;10.400;2023-02-12T05:52:59;103235.19;;;8.57;78.24
51313;BME280;37397;53.226;10.400;2023-02-12T05:55:26;103246.56;;;8.57;78.28
51313;BME280;37397;53.226;10.400;2023-02-12T05:57:53;103242.06;;;8.56;78.13
51313;BME280;37397;53.226;10.400;2023-02-12T06:00:19;103237.19;;;8.53;78.25
51313;BME280;37397;53.226;10.400;2023-02-12T06:02:46;103241.28;;;8.52;78.25
51313;BME280;37397;53.226;10.400;2023-02-12T06:05:13;103248.59;;;8.53;78.28
51313;BME280;37397;53.226;10.400;2023-02-12T06:07:39;103249.00;;;8.55;78.23
51313;BME280;37397;53.226;10.400;2023-02-12T06:10:06;103257.53;;;8.55;78.28
51313;BME280;37397;53.226;10.400;2023-02-12T06:12:33;103251.84;;;8.55;78.23
51313;BME280;37397;53.226;10.400;2023-02-12T06:14:59;103247.78;;;8.52;78.32
51313;BME280;37397;53.226;10.400;2023-02-12T06:17:26;103245.34;;;8.51;78.25
51313;BME280;37397;53.226;10.400;2023-02-12T06:19:52;103244.53;;;8.54;78.32
51313;BME280;37397;53.226;10.400;2023-02-12T06:22:19;103248.59;;;8.53;78.18
51313;BME280;37397;53.226;10.400;2023-02-12T06:24:45;103248.59;;;8.49;78.25
51313;BME280;37397;53.226;10.400;2023-02-12T06:27:11;103255.50;;;8.52;78.31
51313;BME280;37397;53.226;10.400;2023-02-12T06:29:38;103257.53;;;8.48;78.24
51313;BME280;37397;53.226;10.400;2023-02-12T06:32:04;103264.06;;;8.52;78.25
51313;BME280;37397;53.226;10.400;2023-02-12T06:34:33;103259.16;;;8.52;78.24
51313;BME280;37397;53.226;10.400;2023-02-12T06:37:00;103268.91;;;8.51;78.33
51313;BME280;37397;53.226;10.400;2023-02-12T06:39:26;103275.44;;;8.52;78.36
51313;BME280;37397;53.226;10.400;2023-02-12T06:41:53;103267.31;;;8.50;78.27
51313;BME280;37397;53.226;10.400;2023-02-12T06:44:19;103268.50;;;8.46;78.25
51313;BME280;37397;53.226;10.400;2023-02-12T06:46:46;103289.25;;;8.50;78.34
51313;BME280;37397;53.226;10.400;2023-02-12T06:49:13;103283.53;;;8.50;78.25
51313;BME280;37397;53.226;10.400;2023-02-12T06:51:42;103280.69;;;8.46;78.34
51313;BME280;37397;53.226;10.400;2023-02-12T06:54:16;103287.63;;;8.49;78.32
51313;BME280;37397;53.226;10.400;2023-02-12T06:56:43;103278.66;;;8.47;78.35
51313;BME280;37397;53.226;10.400;2023-02-12T06:59:14;103288.44;;;8.49;78.23
51313;BME280;37397;53.226;10.400;2023-02-12T07:01:42;103281.09;;;8.45;78.24
51313;BME280;37397;53.226;10.400;2023-02-12T07:04:09;103292.50;;;8.48;78.55
51313;BME280;37397;53.226;10.400;2023-02-12T07:06:36;103279.91;;;8.46;78.24
51313;BME280;37397;53.226;10.400;2023-02-12T07:09:04;103291.69;;;8.48;78.21
51313;BME280;37397;53.226;10.400;2023-02-12T07:11:32;103300.22;;;8.48;78.33
51313;BME280;37397;53.226;10.400;2023-02-12T07:14:03;103299.41;;;8.47;78.19
51313;BME280;37397;53.226;10.400;2023-02-12T07:16:29;103303.06;;;8.48;78.32
51313;BME280;37397;53.226;10.400;2023-02-12T07:18:56;103304.28;;;8.47;78.21
51313;BME280;37397;53.226;10.400;2023-02-12T07:21:22;103307.53;;;8.45;78.31
51313;BME280;37397;53.226;10.400;2023-02-12T07:23:51;103301.44;;;8.43;78.20
51313;BME280;37397;53.226;10.400;2023-02-12T07:26:18;103305.50;;;8.46;78.27
51313;BME280;37397;53.226;10.400;2023-02-12T07:28:46;103296.56;;;8.44;78.35
51313;BME280;37397;53.226;10.400;2023-02-12T07:31:15;103308.75;;;8.48;78.45
51313;BME280;37397;53.226;10.400;2023-02-12T07:33:43;103300.59;;;8.43;78.28
51313;BME280;37397;53.226;10.400;2023-02-12T07:36:12;103311.59;;;8.48;78.39
51313;BME280;37397;53.226;10.400;2023-02-12T07:38:39;103308.75;;;8.48;78.47
51313;BME280;37397;53.226;10.400;2023-02-12T07:41:15;103306.28;;;8.43;78.29
51313;BME280;37397;53.226;10.400;2023-02-12T07:43:44;103316.91;;;8.49;78.40
51313;BME280;37397;53.226;10.400;2023-02-12T07:46:24;103315.66;;;8.47;78.33
51313;BME280;37397;53.226;10.400;2023-02-12T07:48:55;103317.69;;;8.43;78.48
51313;BME280;37397;53.226;10.400;2023-02-12T07:51:22;103308.75;;;8.40;78.41
51313;BME280;37397;53.226;10.400;2023-02-12T07:53:49;103316.91;;;8.46;78.67
51313;BME280;37397;53.226;10.400;2023-02-12T07:56:19;103316.91;;;8.46;78.63
51313;BME280;37397;53.226;10.400;2023-02-12T07:58:47;103312.81;;;8.47;78.60
51313;BME280;37397;53.226;10.400;2023-02-12T08:01:15;103321.78;;;8.49;78.57
51313;BME280;37397;53.226;10.400;2023-02-12T08:03:43;103317.69;;;8.50;78.59
51313;BME280;37397;53.226;10.400;2023-02-12T08:06:13;103317.69;;;8.50;78.54
51313;BME280;37397;53.226;10.400;2023-02-12T08:08:40;103318.50;;;8.47;78.64
51313;BME280;37397;53.226;10.400;2023-02-12T08:11:07;103327.88;;;8.51;78.69
51313;BME280;37397;53.226;10.400;2023-02-12T08:13:35;103331.94;;;8.50;78.64
51313;BME280;37397;53.226;10.400;2023-02-12T08:16:04;103325.03;;;8.54;78.69
51313;BME280;37397;53.226;10.400;2023-02-12T08:18:32;103330.72;;;8.54;78.78
51313;BME280;37397;53.226;10.400;2023-02-12T08:23:29;103330.31;;;8.56;78.72
51313;BME280;37397;53.226;10.400;2023-02-12T08:26:13;103332.34;;;8.55;78.63
51313;BME280;37397;53.226;10.400;2023-02-12T08:28:43;103338.84;;;8.56;78.83
51313;BME280;37397;53.226;10.400;2023-02-12T08:31:14;103349.44;;;8.59;78.97
51313;BME280;37397;53.226;10.400;2023-02-12T08:33:40;103346.19;;;8.57;78.92
51313;BME280;37397;53.226;10.400;2023-02-12T08:36:12;103346.56;;;8.59;78.91
51313;BME280;37397;53.226;10.400;2023-02-12T08:38:41;103354.31;;;8.62;78.98
51313;BME280;37397;53.226;10.400;2023-02-12T08:41:11;103344.97;;;8.62;78.87
51313;BME280;37397;53.226;10.400;2023-02-12T08:43:39;103338.03;;;8.59;79.05
51313;BME280;37397;53.226;10.400;2023-02-12T08:46:18;103346.19;;;8.57;78.86
51313;BME280;37397;53.226;10.400;2023-02-12T08:48:46;103364.09;;;8.65;78.98
51313;BME280;37397;53.226;10.400;2023-02-12T08:51:15;103361.63;;;8.67;79.09
51313;BME280;37397;53.226;10.400;2023-02-12T08:53:44;103353.91;;;8.67;79.15
51313;BME280;37397;53.226;10.400;2023-02-12T08:56:13;103359.59;;;8.67;79.23
51313;BME280;37397;53.226;10.400;2023-02-12T08:58:40;103371.38;;;8.69;79.19
51313;BME280;37397;53.226;10.400;2023-02-12T09:01:12;103363.69;;;8.70;79.15
51313;BME280;37397;53.226;10.400;2023-02-12T09:03:39;103364.06;;;8.72;79.20
51313;BME280;37397;53.226;10.400;2023-02-12T09:06:06;103359.19;;;8.69;79.24
51313;BME280;37397;53.226;10.400;2023-02-12T09:08:35;103372.59;;;8.75;79.19
51313;BME280;37397;53.226;10.400;2023-02-12T09:11:08;103367.31;;;8.74;79.20
51313;BME280;37397;53.226;10.400;2023-02-12T09:13:35;103378.75;;;8.78;79.25
51313;BME280;37397;53.226;10.400;2023-02-12T09:16:03;103384.03;;;8.79;79.28
51313;BME280;37397;53.226;10.400;2023-02-12T09:18:30;103387.69;;;8.80;79.37
51313;BME280;37397;53.226;10.400;2023-02-12T09:21:02;103395.00;;;8.81;79.37
51313;BME280;37397;53.226;10.400;2023-02-12T09:23:29;103385.22;;;8.82;79.38
51313;BME280;37397;53.226;10.400;2023-02-12T09:25:56;103390.13;;;8.81;79.41
51313;BME280;37397;53.226;10.400;2023-02-12T09:28:23;103388.88;;;8.82;79.23
51313;BME280;37397;53.226;10.400;2023-02-12T09:30:50;103382.78;;;8.84;79.36
51313;BME280;37397;53.226;10.400;2023-02-12T09:33:17;103396.22;;;8.87;79.44
51313;BME280;37397;53.226;10.400;2023-02-12T09:35:43;103390.50;;;8.87;79.47
51313;BME280;37397;53.226;10.400;2023-02-12T09:38:10;103392.56;;;8.86;79.39
51313;BME280;37397;53.226;10.400;2023-02-12T09:41:01;103399.91;;;8.87;79.21
51313;BME280;37397;53.226;10.400;2023-02-12T09:46:09;103403.13;;;8.89;79.33
51313;BME280;37397;53.226;10.400;2023-02-12T09:51:22;103395.00;;;8.88;79.27
51313;BME280;37397;53.226;10.400;2023-02-12T09:53:56;103407.22;;;8.92;79.49
51313;BME280;37397;53.226;10.400;2023-02-12T09:56:26;103412.06;;;8.95;79.33
51313;BME280;37397;53.226;10.400;2023-02-12T09:58:58;103411.28;;;8.94;79.37
51313;BME280;37397;53.226;10.400;2023-02-12T10:01:26;103408.03;;;8.96;79.47
51313;BME280;37397;53.226;10.400;2023-02-12T10:03:53;103401.13;;;8.97;79.39
51313;BME280;37397;53.226;10.400;2023-02-12T10:06:26;103405.56;;;8.98;79.71
51313;BME280;37397;53.226;10.400;2023-02-12T10:11:23;103408.44;;;9.02;79.43
51313;BME280;37397;53.226;10.400;2023-02-12T10:14:11;103408.03;;;9.03;79.58
51313;BME280;37397;53.226;10.400;2023-02-12T10:17:12;103411.28;;;9.02;79.60
51313;BME280;37397;53.226;10.400;2023-02-12T10:22:49;103401.09;;;9.01;79.57
51313;BME280;37397;53.226;10.400;2023-02-12T10:25:43;103408.84;;;9.07;79.61
51313;BME280;37397;53.226;10.400;2023-02-12T10:28:14;103403.53;;;9.09;79.69
51313;BME280;37397;53.226;10.400;2023-02-12T10:30:47;103403.13;;;9.11;79.89
51313;BME280;37397;53.226;10.400;2023-02-12T10:33:19;103397.44;;;9.07;79.76
51313;BME280;37397;53.226;10.400;2023-02-12T10:35:55;103401.53;;;9.10;79.52
51313;BME280;37397;53.226;10.400;2023-02-12T10:38:30;103402.31;;;9.10;79.73
51313;BME280;37397;53.226;10.400;2023-02-12T10:40:57;103399.06;;;9.16;79.96
51313;BME280;37397;53.226;10.400;2023-02-12T10:43:27;103394.19;;;9.16;79.99
51313;BME280;37397;53.226;10.400;2023-02-12T10:45:54;103390.50;;;9.16;80.11
51313;BME280;37397;53.226;10.400;2023-02-12T10:48:26;103392.94;;;9.21;79.94
51313;BME280;37397;53.226;10.400;2023-02-12T10:53:43;103395.41;;;9.26;80.05
51313;BME280;37397;53.226;10.400;2023-02-12T10:58:41;103394.97;;;9.31;80.23
51313;BME280;37397;53.226;10.400;2023-02-12T11:03:54;103387.66;;;9.30;80.27
51313;BME280;37397;53.226;10.400;2023-02-12T11:06:27;103392.13;;;9.35;80.14
51313;BME280;37397;53.226;10.400;2023-02-12T11:08:54;103389.66;;;9.37;79.93
51313;BME280;37397;53.226;10.400;2023-02-12T11:11:29;103386.41;;;9.38;79.92
51313;BME280;37397;53.226;10.400;2023-02-12T11:14:03;103379.91;;;9.38;79.68
51313;BME280;37397;53.226;10.400;2023-02-12T11:16:31;103390.88;;;9.43;80.07
51313;BME280;37397;53.226;10.400;2023-02-12T11:19:04;103391.28;;;9.45;80.15
51313;BME280;37397;53.226;10.400;2023-02-12T11:21:32;103381.91;;;9.44;80.05
51313;BME280;37397;53.226;10.400;2023-02-12T11:24:27;103382.31;;;9.46;80.24
51313;BME280;37397;53.226;10.400;2023-02-12T11:27:25;103374.59;;;9.47;79.91
51313;BME280;37397;53.226;10.400;2023-02-12T11:30:14;103379.47;;;9.50;79.96
51313;BME280;37397;53.226;10.400;2023-02-12T11:32:41;103381.50;;;9.53;80.12
51313;BME280;37397;53.226;10.400;2023-02-12T11:35:22;103379.47;;;9.54;79.96
51313;BME280;37397;53.226;10.400;2023-02-12T11:37:56;103380.66;;;9.56;79.95
51313;BME280;37397;53.226;10.400;2023-02-12T11:40:26;103371.69;;;9.58;80.03
51313;BME280;37397;53.226;10.400;2023-02-12T11:42:59;103376.19;;;9.59;80.15
51313;BME280;37397;53.226;10.400;2023-02-12T11:45:33;103376.56;;;9.61;80.12
51313;BME280;37397;53.226;10.400;2023-02-12T11:48:00;103369.25;;;9.60;80.01
51313;BME280;37397;53.226;10.400;2023-02-12T11:50:30;103376.59;;;9.64;79.96
51313;BME280;37397;53.226;10.400;2023-02-12T11:53:04;103372.91;;;9.64;80.00
51313;BME280;37397;53.226;10.400;2023-02-12T11:55:35;103363.13;;;9.65;80.03
51313;BME280;37397;53.226;10.400;2023-02-12T11:58:12;103364.78;;;9.66;80.21
51313;BME280;37397;53.226;10.400;2023-02-12T12:00:45;103368.41;;;9.70;79.96
51313;BME280;37397;53.226;10.400;2023-02-12T12:03:24;103372.06;;;9.71;80.02
51313;BME280;37397;53.226;10.400;2023-02-12T12:05:56;103361.50;;;9.71;80.06
51313;BME280;37397;53.226;10.400;2023-02-12T12:08:56;103360.66;;;9.71;79.96
51313;BME280;37397;53.226;10.400;2023-02-12T12:11:36;103357.81;;;9.74;79.92
51313;BME280;37397;53.226;10.400;2023-02-12T12:14:13;103357.41;;;9.76;80.01
51313;BME280;37397;53.226;10.400;2023-02-12T12:16:51;103350.47;;;9.73;79.95
51313;BME280;37397;53.226;10.400;2023-02-12T12:19:58;103353.31;;;9.77;79.85
51313;BME280;37397;53.226;10.400;2023-02-12T12:22:45;103357.00;;;9.77;79.69
51313;BME280;37397;53.226;10.400;2023-02-12T12:25:21;103347.59;;;9.77;79.67
51313;BME280;37397;53.226;10.400;2023-02-12T12:31:19;103341.06;;;9.80;79.74
51313;BME280;37397;53.226;10.400;2023-02-12T12:33:51;103345.16;;;9.82;79.94
51313;BME280;37397;53.226;10.400;2023-02-12T12:40:35;103336.16;;;9.80;79.82
51313;BME280;37397;53.226;10.400;2023-02-12T12:42:51;103325.19;;;9.82;79.83
51313;BME280;37397;53.226;10.400;2023-02-12T12:45:45;103331.25;;;9.88;79.76
51313;BME280;37397;53.226;10.400;2023-02-12T12:54:03;103328.81;;;9.90;80.05
51313;BME280;37397;53.226;10.400;2023-02-12T12:56:48;103327.94;;;9.93;79.86
51313;BME280;37397;53.226;10.400;2023-02-12T13:02:29;103319.81;;;9.92;79.57
51313;BME280;37397;53.226;10.400;2023-02-12T13:07:58;103317.34;;;9.97;79.76
51313;BME280;37397;53.226;10.400;2023-02-12T13:10:48;103316.56;;;9.97;79.80
51313;BME280;37397;53.226;10.400;2023-02-12T13:13:36;103310.44;;;9.98;79.66
51313;BME280;37397;53.226;10.400;2023-02-12T13:16:22;103303.88;;;9.98;79.81
51313;BME280;37397;53.226;10.400;2023-02-12T13:19:10;103307.53;;;10.02;79.74
51313;BME280;37397;53.226;10.400;2023-02-12T13:21:47;103304.28;;;10.03;80.00
51313;BME280;37397;53.226;10.400;2023-02-12T13:24:24;103306.72;;;10.05;79.88
51313;BME280;37397;53.226;10.400;2023-02-12T13:27:01;103304.25;;;10.07;79.83
51313;BME280;37397;53.226;10.400;2023-02-12T13:29:45;103309.97;;;10.07;79.72
51313;BME280;37397;53.226;10.400;2023-02-12T13:32:36;103303.44;;;10.07;79.73
51313;BME280;37397;53.226;10.400;2023-02-12T13:35:14;103301.78;;;10.09;79.65
51313;BME280;37397;53.226;10.400;2023-02-12T13:37:44;103298.50;;;10.11;79.76
51313;BME280;37397;53.226;10.400;2023-02-12T13:40:19;103296.50;;;10.11;79.74
51313;BME280;37397;53.226;10.400;2023-02-12T13:42:52;103295.25;;;10.12;79.69
51313;BME280;37397;53.226;10.400;2023-02-12T13:45:34;103296.06;;;10.09;79.59
51313;BME280;37397;53.226;10.400;2023-02-12T13:51:10;103287.50;;;10.09;79.57
51313;BME280;37397;53.226;10.400;2023-02-12T13:54:21;103298.50;;;10.14;79.70
51313;BME280;37397;53.226;10.400;2023-02-12T13:56:56;103293.19;;;10.16;79.78
51313;BME280;37397;53.226;10.400;2023-02-12T14:07:18;103290.31;;;10.20;79.64
51313;BME280;37397;53.226;10.400;2023-02-12T14:10:06;103287.06;;;10.18;79.39
51313;BME280;37397;53.226;10.400;2023-02-12T14:12:34;103275.66;;;10.18;79.65
51313;BME280;37397;53.226;10.400;2023-02-12T14:15:07;103270.75;;;10.18;79.46
51313;BME280;37397;53.226;10.400;2023-02-12T14:28:12;103280.09;;;10.22;79.22
51313;BME280;37397;53.226;10.400;2023-02-12T14:30:43;103284.56;;;10.23;79.50
51313;BME280;37397;53.226;10.400;2023-02-12T14:33:19;103289.06;;;10.25;79.25